14:57
Airports
History
Links
Donate
Help keep this website running!
PayPal
Bitcoin
Information on this page is community maintained and may be outdated or inaccurate and is intended for reference only or PC simulator navigating!
Always use approved charts for navigating.
VT05
North Windham
North Windham (VT05)
Windham, Vermont, United States (5359)
4
Lat/Lng:43° 13' 17.27" N / 72° 42' 46.34" W
43.221464 / -72.712873
Elevation:1750'ft 533mMSL
ID / ICAO:VT05
Runways:1
Longest:(09-27) 692.0m 2,270ft Grass
Distance To
Airport ID:
Nearby VORs <50NM
Nearby NDBs
Nearby WeatherUpdated 03-26-17 14:54 GMT
Nearby weather at KVSF, Hartness State (springfield) located 13.0 nautical miles from VT05
Altimeter: 30.52
Visibility: 10.0 statute miles
Wind: 5 knots (VRB°)
Temp: 1°c 34°f
Humidity: 47.1%

METAR: KVSF 261454Z AUTO VRB05KT 10SM FEW085 01/M09 A3052 RMK AO2 SLP343 T00111094 56005

(Powered by phpweather)
Runway 09 / 27
Dimensions:692 x 21.3m 2270' x 70'ft
Surface:Grass
Runway 09 [A]Runway 27 [B]
Heading:074°TH 254°TH
Lat:
Lng:
43° 13' 14.37"N
72° 43' 1.2"W
43° 13' 20.17"N
72° 42' 31.49"W
Google Map
Nearby Airports
(R) Holloway 5.4 NM
VT13 N 357°
4 Red Fox 10.1 NM
VT02 WSW 239°
(R) Smith 10.4 NM
VT17 N 10°
(U) Hartness State (springfield) 13.0 NM
KVSF (WX) NE 49°
(R) Onyon 14.3 NM
VT43 SSE 167°
(R) Major W. Guth 15.8 NM
VT34 SE 135°
4 Santas 19.2 NM
VT06 SE 141°
VFR Chart
Flight Planning at SkyVector.com